sensor_id;sensor_type;location;lat;lon;timestamp;P1;durP1;ratioP1;P2;durP2;ratioP2
45893;SDS011;31603;51.148;16.932;2023-04-25T00:01:46;21.60;;;3.55;;
45893;SDS011;31603;51.148;16.932;2023-04-25T00:04:13;19.23;;;3.00;;
45893;SDS011;31603;51.148;16.932;2023-04-25T00:06:39;21.42;;;3.28;;
45893;SDS011;31603;51.148;16.932;2023-04-25T00:09:07;31.13;;;4.22;;
45893;SDS011;31603;51.148;16.932;2023-04-25T00:11:34;32.28;;;4.15;;
45893;SDS011;31603;51.148;16.932;2023-04-25T00:14:01;26.52;;;3.72;;
45893;SDS011;31603;51.148;16.932;2023-04-25T00:16:28;31.42;;;4.15;;
45893;SDS011;31603;51.148;16.932;2023-04-25T00:18:55;25.90;;;3.65;;
45893;SDS011;31603;51.148;16.932;2023-04-25T00:21:22;21.98;;;3.22;;
45893;SDS011;31603;51.148;16.932;2023-04-25T00:23:49;23.23;;;3.42;;
45893;SDS011;31603;51.148;16.932;2023-04-25T00:26:17;27.50;;;3.67;;
45893;SDS011;31603;51.148;16.932;2023-04-25T00:28:43;24.38;;;3.53;;
45893;SDS011;31603;51.148;16.932;2023-04-25T00:31:10;27.33;;;3.90;;
45893;SDS011;31603;51.148;16.932;2023-04-25T00:33:36;23.15;;;3.60;;
45893;SDS011;31603;51.148;16.932;2023-04-25T00:36:02;29.17;;;4.30;;
45893;SDS011;31603;51.148;16.932;2023-04-25T00:38:29;26.90;;;4.03;;
45893;SDS011;31603;51.148;16.932;2023-04-25T00:40:55;21.13;;;3.67;;
45893;SDS011;31603;51.148;16.932;2023-04-25T00:43:23;24.55;;;3.65;;
45893;SDS011;31603;51.148;16.932;2023-04-25T00:45:51;19.55;;;3.17;;
45893;SDS011;31603;51.148;16.932;2023-04-25T00:48:18;27.25;;;4.13;;
45893;SDS011;31603;51.148;16.932;2023-04-25T00:50:45;18.63;;;3.15;;
45893;SDS011;31603;51.148;16.932;2023-04-25T00:53:15;19.88;;;3.35;;
45893;SDS011;31603;51.148;16.932;2023-04-25T00:55:41;23.38;;;4.32;;
45893;SDS011;31603;51.148;16.932;2023-04-25T00:58:07;20.55;;;3.47;;
45893;SDS011;31603;51.148;16.932;2023-04-25T01:00:35;27.10;;;3.97;;
45893;SDS011;31603;51.148;16.932;2023-04-25T01:03:02;26.67;;;4.43;;
45893;SDS011;31603;51.148;16.932;2023-04-25T01:05:29;30.13;;;4.88;;
45893;SDS011;31603;51.148;16.932;2023-04-25T01:07:55;24.35;;;3.95;;
45893;SDS011;31603;51.148;16.932;2023-04-25T01:10:22;25.92;;;4.32;;
45893;SDS011;31603;51.148;16.932;2023-04-25T01:12:48;26.65;;;4.50;;
45893;SDS011;31603;51.148;16.932;2023-04-25T01:15:14;22.27;;;4.20;;
45893;SDS011;31603;51.148;16.932;2023-04-25T01:17:42;25.48;;;4.55;;
45893;SDS011;31603;51.148;16.932;2023-04-25T01:20:09;27.50;;;4.63;;
45893;SDS011;31603;51.148;16.932;2023-04-25T01:22:38;24.33;;;4.38;;
45893;SDS011;31603;51.148;16.932;2023-04-25T01:25:04;31.52;;;5.32;;
45893;SDS011;31603;51.148;16.932;2023-04-25T01:27:31;28.27;;;4.70;;
45893;SDS011;31603;51.148;16.932;2023-04-25T01:29:57;27.02;;;5.25;;
45893;SDS011;31603;51.148;16.932;2023-04-25T01:32:24;23.80;;;4.43;;
45893;SDS011;31603;51.148;16.932;2023-04-25T01:34:50;27.23;;;5.00;;
45893;SDS011;31603;51.148;16.932;2023-04-25T01:37:16;23.40;;;4.60;;
45893;SDS011;31603;51.148;16.932;2023-04-25T01:39:44;29.98;;;5.53;;
45893;SDS011;31603;51.148;16.932;2023-04-25T01:42:12;28.63;;;5.38;;
45893;SDS011;31603;51.148;16.932;2023-04-25T01:44:39;26.48;;;5.13;;
45893;SDS011;31603;51.148;16.932;2023-04-25T01:47:05;26.65;;;4.90;;
45893;SDS011;31603;51.148;16.932;2023-04-25T01:49:32;27.83;;;5.47;;
45893;SDS011;31603;51.148;16.932;2023-04-25T01:51:58;23.65;;;5.20;;
45893;SDS011;31603;51.148;16.932;2023-04-25T01:54:24;24.10;;;4.95;;
45893;SDS011;31603;51.148;16.932;2023-04-25T01:56:52;28.77;;;5.57;;
45893;SDS011;31603;51.148;16.932;2023-04-25T01:59:19;24.42;;;5.00;;
45893;SDS011;31603;51.148;16.932;2023-04-25T02:01:46;21.35;;;4.72;;
45893;SDS011;31603;51.148;16.932;2023-04-25T02:04:13;42.72;;;7.72;;
45893;SDS011;31603;51.148;16.932;2023-04-25T02:06:39;26.35;;;5.72;;
45893;SDS011;31603;51.148;16.932;2023-04-25T02:09:06;28.67;;;5.68;;
45893;SDS011;31603;51.148;16.932;2023-04-25T02:11:32;25.10;;;5.32;;
45893;SDS011;31603;51.148;16.932;2023-04-25T02:14:00;27.42;;;5.85;;
45893;SDS011;31603;51.148;16.932;2023-04-25T02:16:26;31.77;;;5.85;;
45893;SDS011;31603;51.148;16.932;2023-04-25T02:18:52;24.70;;;5.28;;
45893;SDS011;31603;51.148;16.932;2023-04-25T02:21:19;25.98;;;5.40;;
45893;SDS011;31603;51.148;16.932;2023-04-25T02:23:45;25.60;;;5.75;;
45893;SDS011;31603;51.148;16.932;2023-04-25T02:26:13;19.77;;;5.35;;
45893;SDS011;31603;51.148;16.932;2023-04-25T02:28:41;31.48;;;6.65;;
45893;SDS011;31603;51.148;16.932;2023-04-25T02:31:09;27.85;;;5.60;;
45893;SDS011;31603;51.148;16.932;2023-04-25T02:33:35;27.98;;;5.60;;
45893;SDS011;31603;51.148;16.932;2023-04-25T02:36:04;53.88;;;9.27;;
45893;SDS011;31603;51.148;16.932;2023-04-25T02:38:31;25.77;;;5.88;;
45893;SDS011;31603;51.148;16.932;2023-04-25T02:40:57;23.52;;;5.35;;
45893;SDS011;31603;51.148;16.932;2023-04-25T02:43:23;25.55;;;5.97;;
45893;SDS011;31603;51.148;16.932;2023-04-25T02:45:49;23.35;;;5.55;;
45893;SDS011;31603;51.148;16.932;2023-04-25T02:48:17;26.83;;;5.80;;
45893;SDS011;31603;51.148;16.932;2023-04-25T02:50:43;29.50;;;6.55;;
45893;SDS011;31603;51.148;16.932;2023-04-25T02:53:10;25.33;;;6.25;;
45893;SDS011;31603;51.148;16.932;2023-04-25T02:55:36;24.25;;;5.63;;
45893;SDS011;31603;51.148;16.932;2023-04-25T02:58:02;25.65;;;5.95;;
45893;SDS011;31603;51.148;16.932;2023-04-25T03:00:29;28.23;;;6.57;;
45893;SDS011;31603;51.148;16.932;2023-04-25T03:02:55;31.58;;;6.30;;
45893;SDS011;31603;51.148;16.932;2023-04-25T03:05:23;35.50;;;7.05;;
45893;SDS011;31603;51.148;16.932;2023-04-25T03:07:49;28.00;;;6.20;;
45893;SDS011;31603;51.148;16.932;2023-04-25T03:10:15;22.48;;;5.72;;
45893;SDS011;31603;51.148;16.932;2023-04-25T03:12:42;26.88;;;6.93;;
45893;SDS011;31603;51.148;16.932;2023-04-25T03:15:08;40.20;;;7.63;;
45893;SDS011;31603;51.148;16.932;2023-04-25T03:17:35;35.03;;;7.63;;
45893;SDS011;31603;51.148;16.932;2023-04-25T03:20:01;40.28;;;7.97;;
45893;SDS011;31603;51.148;16.932;2023-04-25T03:22:30;46.15;;;7.80;;
45893;SDS011;31603;51.148;16.932;2023-04-25T03:24:56;54.17;;;8.07;;
45893;SDS011;31603;51.148;16.932;2023-04-25T03:27:22;43.17;;;8.63;;
45893;SDS011;31603;51.148;16.932;2023-04-25T03:29:49;45.85;;;8.52;;
45893;SDS011;31603;51.148;16.932;2023-04-25T03:32:15;55.88;;;8.70;;
45893;SDS011;31603;51.148;16.932;2023-04-25T03:34:41;44.17;;;7.60;;
45893;SDS011;31603;51.148;16.932;2023-04-25T03:37:07;37.85;;;8.10;;
45893;SDS011;31603;51.148;16.932;2023-04-25T03:39:35;35.75;;;8.23;;
45893;SDS011;31603;51.148;16.932;2023-04-25T03:42:02;37.60;;;7.63;;
45893;SDS011;31603;51.148;16.932;2023-04-25T03:44:29;37.20;;;8.95;;
45893;SDS011;31603;51.148;16.932;2023-04-25T03:46:55;35.50;;;8.07;;
45893;SDS011;31603;51.148;16.932;2023-04-25T03:49:21;33.92;;;7.93;;
45893;SDS011;31603;51.148;16.932;2023-04-25T03:51:48;35.00;;;7.93;;
45893;SDS011;31603;51.148;16.932;2023-04-25T03:54:15;41.65;;;8.55;;
45893;SDS011;31603;51.148;16.932;2023-04-25T03:56:43;54.72;;;11.55;;
45893;SDS011;31603;51.148;16.932;2023-04-25T03:59:09;57.55;;;9.30;;
45893;SDS011;31603;51.148;16.932;2023-04-25T04:01:35;56.08;;;9.20;;
45893;SDS011;31603;51.148;16.932;2023-04-25T04:04:02;35.80;;;8.05;;
45893;SDS011;31603;51.148;16.932;2023-04-25T04:06:29;39.28;;;8.07;;
45893;SDS011;31603;51.148;16.932;2023-04-25T04:08:55;48.45;;;8.88;;
45893;SDS011;31603;51.148;16.932;2023-04-25T04:11:21;48.65;;;8.52;;
45893;SDS011;31603;51.148;16.932;2023-04-25T04:13:49;43.38;;;8.88;;
45893;SDS011;31603;51.148;16.932;2023-04-25T04:16:15;39.65;;;9.38;;
45893;SDS011;31603;51.148;16.932;2023-04-25T04:18:42;35.65;;;8.38;;
45893;SDS011;31603;51.148;16.932;2023-04-25T04:21:08;36.22;;;9.13;;
45893;SDS011;31603;51.148;16.932;2023-04-25T04:23:34;36.15;;;9.02;;
45893;SDS011;31603;51.148;16.932;2023-04-25T04:26:01;39.05;;;9.20;;
45893;SDS011;31603;51.148;16.932;2023-04-25T04:28:27;38.42;;;8.60;;
45893;SDS011;31603;51.148;16.932;2023-04-25T04:30:55;40.53;;;9.70;;
45893;SDS011;31603;51.148;16.932;2023-04-25T04:33:21;39.25;;;9.25;;
45893;SDS011;31603;51.148;16.932;2023-04-25T04:35:48;43.67;;;10.60;;
45893;SDS011;31603;51.148;16.932;2023-04-25T04:38:17;37.78;;;9.70;;
45893;SDS011;31603;51.148;16.932;2023-04-25T04:40:43;35.47;;;9.88;;
45893;SDS011;31603;51.148;16.932;2023-04-25T04:43:10;33.95;;;10.07;;
45893;SDS011;31603;51.148;16.932;2023-04-25T04:45:36;41.22;;;8.77;;
45893;SDS011;31603;51.148;16.932;2023-04-25T04:48:04;45.20;;;9.63;;
45893;SDS011;31603;51.148;16.932;2023-04-25T04:50:31;46.20;;;9.23;;
45893;SDS011;31603;51.148;16.932;2023-04-25T04:52:57;55.17;;;8.85;;
45893;SDS011;31603;51.148;16.932;2023-04-25T04:55:24;60.17;;;10.02;;
45893;SDS011;31603;51.148;16.932;2023-04-25T04:57:50;44.22;;;8.75;;
45893;SDS011;31603;51.148;16.932;2023-04-25T05:00:17;44.55;;;9.00;;
45893;SDS011;31603;51.148;16.932;2023-04-25T05:02:43;44.38;;;9.10;;
45893;SDS011;31603;51.148;16.932;2023-04-25T05:05:11;49.80;;;8.98;;
45893;SDS011;31603;51.148;16.932;2023-04-25T05:07:37;36.08;;;8.10;;
45893;SDS011;31603;51.148;16.932;2023-04-25T05:10:04;49.28;;;8.95;;
45893;SDS011;31603;51.148;16.932;2023-04-25T05:12:31;38.30;;;7.38;;
45893;SDS011;31603;51.148;16.932;2023-04-25T05:14:57;39.03;;;7.80;;
45893;SDS011;31603;51.148;16.932;2023-04-25T05:17:23;51.58;;;8.77;;
45893;SDS011;31603;51.148;16.932;2023-04-25T05:19:50;57.15;;;8.63;;
45893;SDS011;31603;51.148;16.932;2023-04-25T05:22:17;54.00;;;17.63;;
45893;SDS011;31603;51.148;16.932;2023-04-25T05:24:43;22.70;;;8.68;;
45893;SDS011;31603;51.148;16.932;2023-04-25T05:27:10;12.60;;;7.20;;
45893;SDS011;31603;51.148;16.932;2023-04-25T05:29:37;13.95;;;7.20;;
45893;SDS011;31603;51.148;16.932;2023-04-25T05:32:03;11.40;;;6.43;;
45893;SDS011;31603;51.148;16.932;2023-04-25T05:34:29;10.23;;;6.70;;
45893;SDS011;31603;51.148;16.932;2023-04-25T05:36:56;10.50;;;6.25;;
45893;SDS011;31603;51.148;16.932;2023-04-25T05:39:23;10.95;;;7.25;;
45893;SDS011;31603;51.148;16.932;2023-04-25T05:41:49;10.80;;;6.88;;
45893;SDS011;31603;51.148;16.932;2023-04-25T05:44:16;11.65;;;7.07;;
45893;SDS011;31603;51.148;16.932;2023-04-25T05:46:42;12.95;;;7.32;;
45893;SDS011;31603;51.148;16.932;2023-04-25T05:49:08;7.25;;;6.05;;
45893;SDS011;31603;51.148;16.932;2023-04-25T05:51:34;15.57;;;6.45;;
45893;SDS011;31603;51.148;16.932;2023-04-25T05:54:01;12.13;;;6.90;;
45893;SDS011;31603;51.148;16.932;2023-04-25T05:56:28;10.57;;;6.22;;
45893;SDS011;31603;51.148;16.932;2023-04-25T05:58:55;10.15;;;5.95;;
45893;SDS011;31603;51.148;16.932;2023-04-25T06:01:21;8.45;;;5.88;;
45893;SDS011;31603;51.148;16.932;2023-04-25T06:03:48;8.45;;;5.63;;
45893;SDS011;31603;51.148;16.932;2023-04-25T06:06:14;8.77;;;5.47;;
45893;SDS011;31603;51.148;16.932;2023-04-25T06:08:40;7.63;;;5.97;;
45893;SDS011;31603;51.148;16.932;2023-04-25T06:11:07;9.75;;;6.45;;
45893;SDS011;31603;51.148;16.932;2023-04-25T06:13:35;11.50;;;6.75;;
45893;SDS011;31603;51.148;16.932;2023-04-25T06:16:01;11.77;;;6.63;;
45893;SDS011;31603;51.148;16.932;2023-04-25T06:18:27;11.35;;;7.03;;
45893;SDS011;31603;51.148;16.932;2023-04-25T06:20:54;13.32;;;6.15;;
45893;SDS011;31603;51.148;16.932;2023-04-25T06:23:20;12.57;;;6.03;;
45893;SDS011;31603;51.148;16.932;2023-04-25T06:25:46;11.30;;;6.35;;
45893;SDS011;31603;51.148;16.932;2023-04-25T06:28:13;13.18;;;6.38;;
45893;SDS011;31603;51.148;16.932;2023-04-25T06:30:41;16.10;;;6.00;;
45893;SDS011;31603;51.148;16.932;2023-04-25T06:33:07;18.27;;;7.68;;
45893;SDS011;31603;51.148;16.932;2023-04-25T06:35:34;16.95;;;6.18;;
45893;SDS011;31603;51.148;16.932;2023-04-25T06:38:00;16.42;;;6.00;;
45893;SDS011;31603;51.148;16.932;2023-04-25T06:40:27;15.02;;;5.72;;
45893;SDS011;31603;51.148;16.932;2023-04-25T06:42:54;14.20;;;5.80;;
45893;SDS011;31603;51.148;16.932;2023-04-25T06:45:20;7.82;;;5.03;;
45893;SDS011;31603;51.148;16.932;2023-04-25T06:47:47;11.13;;;5.43;;
45893;SDS011;31603;51.148;16.932;2023-04-25T06:50:14;11.70;;;4.88;;
45893;SDS011;31603;51.148;16.932;2023-04-25T06:52:40;11.20;;;5.18;;
45893;SDS011;31603;51.148;16.932;2023-04-25T06:55:07;8.70;;;4.63;;
45893;SDS011;31603;51.148;16.932;2023-04-25T06:57:33;10.20;;;4.50;;
45893;SDS011;31603;51.148;16.932;2023-04-25T06:59:59;10.90;;;4.80;;
45893;SDS011;31603;51.148;16.932;2023-04-25T07:02:26;18.08;;;5.60;;
45893;SDS011;31603;51.148;16.932;2023-04-25T07:04:53;16.88;;;4.65;;
45893;SDS011;31603;51.148;16.932;2023-04-25T07:07:21;16.83;;;4.60;;
45893;SDS011;31603;51.148;16.932;2023-04-25T07:09:47;19.13;;;4.47;;
45893;SDS011;31603;51.148;16.932;2023-04-25T07:12:13;12.93;;;4.38;;
45893;SDS011;31603;51.148;16.932;2023-04-25T07:14:40;18.40;;;4.53;;
45893;SDS011;31603;51.148;16.932;2023-04-25T07:17:06;15.85;;;4.25;;
45893;SDS011;31603;51.148;16.932;2023-04-25T07:19:32;12.57;;;4.95;;
45893;SDS011;31603;51.148;16.932;2023-04-25T07:22:00;15.88;;;5.35;;
45893;SDS011;31603;51.148;16.932;2023-04-25T07:24:27;7.32;;;3.58;;
45893;SDS011;31603;51.148;16.932;2023-04-25T07:26:53;17.20;;;4.40;;
45893;SDS011;31603;51.148;16.932;2023-04-25T07:29:19;7.00;;;3.67;;
45893;SDS011;31603;51.148;16.932;2023-04-25T07:31:46;15.27;;;4.50;;
45893;SDS011;31603;51.148;16.932;2023-04-25T07:34:12;12.80;;;4.57;;
45893;SDS011;31603;51.148;16.932;2023-04-25T07:36:38;8.50;;;4.45;;
45893;SDS011;31603;51.148;16.932;2023-04-25T07:39:06;18.70;;;6.13;;
45893;SDS011;31603;51.148;16.932;2023-04-25T07:41:34;17.58;;;6.32;;
45893;SDS011;31603;51.148;16.932;2023-04-25T07:44:00;24.17;;;6.43;;
45893;SDS011;31603;51.148;16.932;2023-04-25T07:46:26;20.30;;;6.25;;
45893;SDS011;31603;51.148;16.932;2023-04-25T07:48:53;21.83;;;6.43;;
45893;SDS011;31603;51.148;16.932;2023-04-25T07:51:19;24.13;;;6.68;;
45893;SDS011;31603;51.148;16.932;2023-04-25T07:53:47;18.27;;;5.82;;
45893;SDS011;31603;51.148;16.932;2023-04-25T07:56:15;19.85;;;6.18;;
45893;SDS011;31603;51.148;16.932;2023-04-25T07:58:41;17.63;;;6.43;;
45893;SDS011;31603;51.148;16.932;2023-04-25T08:01:07;11.68;;;5.07;;
45893;SDS011;31603;51.148;16.932;2023-04-25T08:03:33;19.45;;;6.65;;
45893;SDS011;31603;51.148;16.932;2023-04-25T08:06:00;17.38;;;6.10;;
45893;SDS011;31603;51.148;16.932;2023-04-25T08:08:26;22.02;;;6.70;;
45893;SDS011;31603;51.148;16.932;2023-04-25T08:10:52;21.30;;;6.93;;
45893;SDS011;31603;51.148;16.932;2023-04-25T08:13:20;12.60;;;5.68;;
45893;SDS011;31603;51.148;16.932;2023-04-25T08:15:46;8.75;;;5.28;;
45893;SDS011;31603;51.148;16.932;2023-04-25T08:18:12;15.18;;;6.38;;
45893;SDS011;31603;51.148;16.932;2023-04-25T08:20:39;23.17;;;6.75;;
45893;SDS011;31603;51.148;16.932;2023-04-25T08:23:05;18.10;;;5.80;;
45893;SDS011;31603;51.148;16.932;2023-04-25T08:25:32;13.43;;;5.22;;
45893;SDS011;31603;51.148;16.932;2023-04-25T08:27:58;19.33;;;5.85;;
45893;SDS011;31603;51.148;16.932;2023-04-25T08:30:29;15.48;;;5.78;;
45893;SDS011;31603;51.148;16.932;2023-04-25T08:32:55;15.68;;;6.35;;
45893;SDS011;31603;51.148;16.932;2023-04-25T08:35:21;20.20;;;5.85;;
45893;SDS011;31603;51.148;16.932;2023-04-25T08:37:48;16.23;;;6.03;;
45893;SDS011;31603;51.148;16.932;2023-04-25T08:40:15;20.17;;;6.22;;
45893;SDS011;31603;51.148;16.932;2023-04-25T08:42:41;22.23;;;6.57;;
45893;SDS011;31603;51.148;16.932;2023-04-25T08:45:08;19.85;;;6.15;;
45893;SDS011;31603;51.148;16.932;2023-04-25T08:47:37;9.57;;;6.22;;
45893;SDS011;31603;51.148;16.932;2023-04-25T08:50:04;7.15;;;5.00;;
45893;SDS011;31603;51.148;16.932;2023-04-25T08:52:32;12.98;;;6.85;;
45893;SDS011;31603;51.148;16.932;2023-04-25T08:55:01;10.57;;;6.28;;
45893;SDS011;31603;51.148;16.932;2023-04-25T08:57:28;9.10;;;5.78;;
45893;SDS011;31603;51.148;16.932;2023-04-25T08:59:55;14.77;;;6.35;;
45893;SDS011;31603;51.148;16.932;2023-04-25T09:02:22;8.52;;;4.75;;
45893;SDS011;31603;51.148;16.932;2023-04-25T09:04:51;9.13;;;5.53;;
45893;SDS011;31603;51.148;16.932;2023-04-25T09:07:19;9.40;;;5.57;;
45893;SDS011;31603;51.148;16.932;2023-04-25T09:09:46;7.90;;;5.68;;
45893;SDS011;31603;51.148;16.932;2023-04-25T09:12:12;9.00;;;5.28;;
45893;SDS011;31603;51.148;16.932;2023-04-25T09:14:38;6.22;;;4.82;;
45893;SDS011;31603;51.148;16.932;2023-04-25T09:17:07;7.25;;;4.53;;
45893;SDS011;31603;51.148;16.932;2023-04-25T09:19:34;9.30;;;5.18;;
45893;SDS011;31603;51.148;16.932;2023-04-25T09:22:02;7.00;;;4.85;;
45893;SDS011;31603;51.148;16.932;2023-04-25T09:24:32;8.85;;;4.40;;
45893;SDS011;31603;51.148;16.932;2023-04-25T09:26:59;7.50;;;4.05;;
45893;SDS011;31603;51.148;16.932;2023-04-25T09:29:30;9.45;;;4.07;;
45893;SDS011;31603;51.148;16.932;2023-04-25T09:32:13;8.63;;;5.55;;
45893;SDS011;31603;51.148;16.932;2023-04-25T09:34:39;9.05;;;6.05;;
45893;SDS011;31603;51.148;16.932;2023-04-25T09:37:08;8.15;;;5.35;;
45893;SDS011;31603;51.148;16.932;2023-04-25T09:39:35;9.73;;;5.22;;
45893;SDS011;31603;51.148;16.932;2023-04-25T09:42:02;9.70;;;5.07;;
45893;SDS011;31603;51.148;16.932;2023-04-25T09:44:29;7.28;;;5.13;;
45893;SDS011;31603;51.148;16.932;2023-04-25T09:46:55;9.80;;;4.93;;
45893;SDS011;31603;51.148;16.932;2023-04-25T09:49:22;6.72;;;4.90;;
45893;SDS011;31603;51.148;16.932;2023-04-25T09:51:53;6.47;;;4.60;;
45893;SDS011;31603;51.148;16.932;2023-04-25T09:54:21;7.68;;;5.25;;
45893;SDS011;31603;51.148;16.932;2023-04-25T09:56:47;7.43;;;4.30;;
45893;SDS011;31603;51.148;16.932;2023-04-25T09:59:14;8.98;;;5.13;;
45893;SDS011;31603;51.148;16.932;2023-04-25T10:01:41;7.22;;;4.10;;
45893;SDS011;31603;51.148;16.932;2023-04-25T10:04:10;5.28;;;3.70;;
45893;SDS011;31603;51.148;16.932;2023-04-25T10:06:37;5.22;;;3.83;;
45893;SDS011;31603;51.148;16.932;2023-04-25T10:09:03;5.97;;;3.50;;
45893;SDS011;31603;51.148;16.932;2023-04-25T10:11:34;7.25;;;4.28;;
45893;SDS011;31603;51.148;16.932;2023-04-25T10:14:00;4.68;;;3.30;;
45893;SDS011;31603;51.148;16.932;2023-04-25T10:16:27;5.72;;;3.53;;
45893;SDS011;31603;51.148;16.932;2023-04-25T10:18:54;5.90;;;3.33;;
45893;SDS011;31603;51.148;16.932;2023-04-25T10:21:20;4.45;;;3.38;;
45893;SDS011;31603;51.148;16.932;2023-04-25T10:23:47;9.43;;;3.22;;
45893;SDS011;31603;51.148;16.932;2023-04-25T10:26:14;5.45;;;3.20;;
45893;SDS011;31603;51.148;16.932;2023-04-25T10:28:58;4.78;;;2.75;;
45893;SDS011;31603;51.148;16.932;2023-04-25T10:31:26;3.78;;;2.90;;
45893;SDS011;31603;51.148;16.932;2023-04-25T10:33:52;7.50;;;3.22;;
45893;SDS011;31603;51.148;16.932;2023-04-25T10:36:19;5.50;;;2.70;;
45893;SDS011;31603;51.148;16.932;2023-04-25T10:38:47;3.70;;;2.38;;
45893;SDS011;31603;51.148;16.932;2023-04-25T10:41:15;8.60;;;4.28;;
45893;SDS011;31603;51.148;16.932;2023-04-25T10:43:43;6.68;;;3.35;;
45893;SDS011;31603;51.148;16.932;2023-04-25T10:46:18;9.73;;;4.43;;
45893;SDS011;31603;51.148;16.932;2023-04-25T10:48:46;13.93;;;4.82;;
45893;SDS011;31603;51.148;16.932;2023-04-25T10:51:15;4.40;;;3.10;;
45893;SDS011;31603;51.148;16.932;2023-04-25T10:53:43;4.82;;;2.95;;
45893;SDS011;31603;51.148;16.932;2023-04-25T10:56:10;3.42;;;2.40;;
45893;SDS011;31603;51.148;16.932;2023-04-25T10:58:41;2.67;;;2.00;;
45893;SDS011;31603;51.148;16.932;2023-04-25T11:01:07;3.60;;;1.90;;
45893;SDS011;31603;51.148;16.932;2023-04-25T11:03:39;3.75;;;2.33;;
45893;SDS011;31603;51.148;16.932;2023-04-25T11:06:06;3.83;;;1.90;;
45893;SDS011;31603;51.148;16.932;2023-04-25T11:08:37;5.55;;;2.58;;
45893;SDS011;31603;51.148;16.932;2023-04-25T11:11:05;2.42;;;1.90;;
45893;SDS011;31603;51.148;16.932;2023-04-25T11:13:32;3.35;;;1.80;;
45893;SDS011;31603;51.148;16.932;2023-04-25T11:15:58;2.45;;;1.67;;
45893;SDS011;31603;51.148;16.932;2023-04-25T11:18:25;3.92;;;1.60;;
45893;SDS011;31603;51.148;16.932;2023-04-25T11:20:53;3.05;;;1.30;;
45893;SDS011;31603;51.148;16.932;2023-04-25T11:23:19;3.13;;;1.38;;
45893;SDS011;31603;51.148;16.932;2023-04-25T11:25:45;2.08;;;1.55;;
45893;SDS011;31603;51.148;16.932;2023-04-25T11:28:12;3.50;;;2.03;;
45893;SDS011;31603;51.148;16.932;2023-04-25T11:30:38;2.92;;;1.45;;
45893;SDS011;31603;51.148;16.932;2023-04-25T11:33:05;1.85;;;1.30;;
45893;SDS011;31603;51.148;16.932;2023-04-25T11:35:31;3.70;;;1.27;;
45893;SDS011;31603;51.148;16.932;2023-04-25T11:37:59;4.10;;;1.85;;
45893;SDS011;31603;51.148;16.932;2023-04-25T11:40:27;2.60;;;1.33;;
45893;SDS011;31603;51.148;16.932;2023-04-25T11:42:53;2.97;;;1.15;;
45893;SDS011;31603;51.148;16.932;2023-04-25T11:45:19;4.40;;;1.50;;
45893;SDS011;31603;51.148;16.932;2023-04-25T11:47:46;4.80;;;1.20;;
45893;SDS011;31603;51.148;16.932;2023-04-25T11:50:12;4.15;;;1.30;;
45893;SDS011;31603;51.148;16.932;2023-04-25T11:52:39;3.80;;;1.52;;
45893;SDS011;31603;51.148;16.932;2023-04-25T11:57:35;1.77;;;1.20;;
45893;SDS011;31603;51.148;16.932;2023-04-25T12:00:05;1.42;;;1.20;;
45893;SDS011;31603;51.148;16.932;2023-04-25T12:02:32;4.88;;;1.33;;
45893;SDS011;31603;51.148;16.932;2023-04-25T12:05:00;1.60;;;1.17;;
45893;SDS011;31603;51.148;16.932;2023-04-25T12:07:28;2.22;;;1.48;;
45893;SDS011;31603;51.148;16.932;2023-04-25T12:09:55;3.53;;;1.42;;
45893;SDS011;31603;51.148;16.932;2023-04-25T12:12:21;3.22;;;1.30;;
45893;SDS011;31603;51.148;16.932;2023-04-25T12:14:49;2.65;;;1.15;;
45893;SDS011;31603;51.148;16.932;2023-04-25T12:17:16;2.78;;;1.42;;
45893;SDS011;31603;51.148;16.932;2023-04-25T12:19:42;3.17;;;1.30;;
45893;SDS011;31603;51.148;16.932;2023-04-25T12:22:19;2.00;;;1.40;;
45893;SDS011;31603;51.148;16.932;2023-04-25T12:24:45;2.63;;;1.20;;
45893;SDS011;31603;51.148;16.932;2023-04-25T12:27:13;3.63;;;1.27;;
45893;SDS011;31603;51.148;16.932;2023-04-25T12:29:49;4.25;;;1.40;;
45893;SDS011;31603;51.148;16.932;2023-04-25T12:32:17;3.00;;;1.17;;
45893;SDS011;31603;51.148;16.932;2023-04-25T12:34:43;1.83;;;0.85;;
45893;SDS011;31603;51.148;16.932;2023-04-25T12:37:10;1.33;;;1.10;;
45893;SDS011;31603;51.148;16.932;2023-04-25T12:39:36;1.88;;;1.10;;
45893;SDS011;31603;51.148;16.932;2023-04-25T12:42:03;2.55;;;1.23;;
45893;SDS011;31603;51.148;16.932;2023-04-25T12:44:29;4.57;;;2.00;;
45893;SDS011;31603;51.148;16.932;2023-04-25T12:46:55;1.98;;;1.20;;
45893;SDS011;31603;51.148;16.932;2023-04-25T12:49:23;1.73;;;1.15;;
45893;SDS011;31603;51.148;16.932;2023-04-25T12:51:50;3.17;;;1.23;;
45893;SDS011;31603;51.148;16.932;2023-04-25T12:54:17;2.65;;;1.27;;
45893;SDS011;31603;51.148;16.932;2023-04-25T12:56:44;6.22;;;2.30;;
45893;SDS011;31603;51.148;16.932;2023-04-25T12:59:11;1.73;;;1.10;;
45893;SDS011;31603;51.148;16.932;2023-04-25T13:01:37;2.17;;;1.40;;
45893;SDS011;31603;51.148;16.932;2023-04-25T13:04:04;3.33;;;1.20;;
45893;SDS011;31603;51.148;16.932;2023-04-25T13:06:32;2.70;;;1.15;;
45893;SDS011;31603;51.148;16.932;2023-04-25T13:08:58;3.88;;;1.60;;
45893;SDS011;31603;51.148;16.932;2023-04-25T13:11:24;4.53;;;1.65;;
45893;SDS011;31603;51.148;16.932;2023-04-25T13:13:50;2.85;;;1.23;;
45893;SDS011;31603;51.148;16.932;2023-04-25T13:16:17;1.92;;;1.15;;
45893;SDS011;31603;51.148;16.932;2023-04-25T13:18:46;2.85;;;1.50;;
45893;SDS011;31603;51.148;16.932;2023-04-25T13:21:13;3.30;;;1.50;;
45893;SDS011;31603;51.148;16.932;2023-04-25T13:23:40;2.88;;;1.30;;
45893;SDS011;31603;51.148;16.932;2023-04-25T13:26:07;2.15;;;1.42;;
45893;SDS011;31603;51.148;16.932;2023-04-25T13:28:34;3.13;;;1.60;;
45893;SDS011;31603;51.148;16.932;2023-04-25T13:31:00;2.15;;;1.05;;
45893;SDS011;31603;51.148;16.932;2023-04-25T13:33:26;2.08;;;1.20;;
45893;SDS011;31603;51.148;16.932;2023-04-25T13:35:52;2.70;;;1.50;;
45893;SDS011;31603;51.148;16.932;2023-04-25T13:38:21;2.53;;;1.27;;
45893;SDS011;31603;51.148;16.932;2023-04-25T13:40:49;3.40;;;1.50;;
45893;SDS011;31603;51.148;16.932;2023-04-25T13:43:17;2.50;;;1.17;;
45893;SDS011;31603;51.148;16.932;2023-04-25T13:45:44;2.78;;;1.77;;
45893;SDS011;31603;51.148;16.932;2023-04-25T13:48:10;2.40;;;1.52;;
45893;SDS011;31603;51.148;16.932;2023-04-25T13:50:36;1.73;;;1.63;;
45893;SDS011;31603;51.148;16.932;2023-04-25T13:53:02;2.92;;;1.77;;
45893;SDS011;31603;51.148;16.932;2023-04-25T13:55:29;2.75;;;1.50;;
45893;SDS011;31603;51.148;16.932;2023-04-25T13:57:56;3.22;;;1.85;;
45893;SDS011;31603;51.148;16.932;2023-04-25T14:00:23;3.13;;;1.40;;
45893;SDS011;31603;51.148;16.932;2023-04-25T14:02:49;2.58;;;1.50;;
45893;SDS011;31603;51.148;16.932;2023-04-25T14:05:15;2.17;;;1.17;;
45893;SDS011;31603;51.148;16.932;2023-04-25T14:07:42;2.40;;;1.35;;
45893;SDS011;31603;51.148;16.932;2023-04-25T14:10:08;3.08;;;1.48;;
45893;SDS011;31603;51.148;16.932;2023-04-25T14:12:35;2.58;;;1.70;;
45893;SDS011;31603;51.148;16.932;2023-04-25T14:15:03;4.65;;;2.03;;
45893;SDS011;31603;51.148;16.932;2023-04-25T14:17:29;5.13;;;3.15;;
45893;SDS011;31603;51.148;16.932;2023-04-25T14:19:55;5.70;;;3.63;;
45893;SDS011;31603;51.148;16.932;2023-04-25T14:22:22;6.88;;;2.90;;
45893;SDS011;31603;51.148;16.932;2023-04-25T14:24:48;5.15;;;2.65;;
45893;SDS011;31603;51.148;16.932;2023-04-25T14:27:17;6.75;;;3.05;;